createdAt,value
2022-09-13T00:13:51.893Z,94.0
2022-09-13T00:27:51.896Z,95.0
2022-09-13T00:41:51.901Z,95.0
2022-09-13T00:55:51.906Z,96.0
2022-09-13T01:09:51.951Z,96.0
2022-09-13T01:23:52.083Z,96.0
2022-09-13T01:37:52.084Z,96.0
2022-09-13T01:51:52.068Z,96.0
2022-09-13T02:05:52.079Z,96.0
2022-09-13T02:19:52.091Z,96.0
2022-09-13T02:33:52.089Z,96.0
2022-09-13T02:47:52.103Z,96.0
2022-09-13T03:01:52.139Z,97.0
2022-09-13T03:15:52.106Z,97.0
2022-09-13T03:29:52.112Z,97.0
2022-09-13T03:43:52.117Z,97.0
2022-09-13T03:57:52.109Z,90.0
2022-09-13T04:11:52.101Z,90.0
2022-09-13T04:25:52.159Z,90.0
2022-09-13T04:39:52.174Z,91.0
2022-09-13T04:54:52.174Z,93.0
2022-09-13T05:09:52.167Z,94.0
2022-09-13T05:25:52.136Z,94.0
2022-09-13T05:40:52.188Z,95.0
2022-09-13T05:55:52.169Z,95.0
2022-09-13T06:10:52.178Z,95.0
2022-09-13T06:25:52.241Z,95.0
2022-09-13T06:40:52.245Z,94.0
2022-09-13T06:55:52.254Z,92.0
2022-09-13T07:10:52.219Z,83.0
2022-09-13T07:25:52.295Z,68.0
2022-09-13T07:40:52.254Z,60.0
2022-09-13T07:55:52.296Z,60.0
2022-09-13T08:10:52.277Z,59.0
2022-09-13T08:25:52.287Z,60.0
2022-09-13T08:40:52.288Z,58.0
2022-09-13T08:55:52.292Z,59.0
2022-09-13T09:10:52.278Z,56.0
2022-09-13T09:25:52.306Z,55.0
2022-09-13T09:40:52.297Z,56.0
2022-09-13T09:56:52.453Z,55.0
2022-09-13T10:11:52.455Z,55.0
2022-09-13T10:26:52.436Z,55.0
2022-09-13T10:41:52.442Z,54.0
2022-09-13T10:56:52.465Z,55.0
2022-09-13T11:11:52.466Z,53.0
2022-09-13T11:26:52.482Z,55.0
2022-09-13T11:41:52.489Z,50.0
2022-09-13T11:56:52.500Z,50.0
2022-09-13T12:12:52.507Z,49.0
2022-09-13T12:27:52.478Z,48.0
2022-09-13T12:42:52.552Z,47.0
2022-09-13T12:57:52.541Z,47.0
2022-09-13T13:12:52.510Z,46.0
2022-09-13T13:27:52.507Z,45.0
2022-09-13T13:42:52.535Z,45.0
2022-09-13T13:57:52.547Z,42.0
2022-09-13T14:12:52.524Z,43.0
2022-09-13T14:28:52.748Z,50.0
2022-09-13T14:43:52.762Z,48.0
2022-09-13T14:58:52.746Z,47.0
2022-09-13T15:13:52.823Z,50.0
2022-09-13T15:28:52.852Z,54.0
2022-09-13T15:44:52.832Z,58.0
2022-09-13T15:59:52.862Z,53.0
2022-09-13T16:14:52.863Z,53.0
2022-09-13T16:29:52.879Z,58.0
2022-09-13T16:44:52.855Z,63.0
2022-09-13T16:59:52.867Z,66.0
2022-09-13T17:14:52.858Z,73.0
2022-09-13T17:29:52.862Z,78.0
2022-09-13T17:44:52.897Z,79.0
2022-09-13T17:59:52.905Z,81.0
2022-09-13T18:14:52.862Z,82.0
2022-09-13T18:28:52.921Z,84.0
2022-09-13T18:42:52.903Z,85.0
2022-09-13T18:56:52.913Z,86.0
2022-09-13T19:10:52.915Z,87.0
2022-09-13T19:24:52.914Z,88.0
2022-09-13T19:38:52.908Z,89.0
2022-09-13T19:52:52.923Z,87.0
2022-09-13T20:06:52.924Z,86.0
2022-09-13T20:20:53.029Z,86.0
2022-09-13T20:34:52.979Z,87.0
2022-09-13T20:48:53.023Z,89.0
2022-09-13T21:02:53.115Z,90.0
2022-09-13T21:16:53.264Z,90.0
2022-09-13T21:30:53.240Z,88.0
2022-09-13T21:44:53.157Z,89.0
2022-09-13T21:58:53.160Z,90.0
2022-09-13T22:12:53.210Z,91.0
2022-09-13T22:26:53.196Z,92.0
2022-09-13T22:40:53.269Z,92.0
2022-09-13T22:54:53.209Z,92.0
2022-09-13T23:08:53.232Z,92.0
2022-09-13T23:22:53.233Z,90.0
2022-09-13T23:36:53.239Z,90.0
2022-09-13T23:50:53.255Z,90.0
